createdAt,value
2022-12-12T00:00:14.134Z,13.77
2022-12-12T00:02:42.346Z,14.67
2022-12-12T00:05:09.993Z,14.73
2022-12-12T00:07:36.851Z,14.30
2022-12-12T00:10:03.564Z,14.47
2022-12-12T00:12:30.049Z,14.33
2022-12-12T00:14:56.593Z,14.17
2022-12-12T00:17:23.075Z,14.70
2022-12-12T00:19:49.694Z,13.90
2022-12-12T00:22:16.224Z,13.87
2022-12-12T00:24:42.723Z,13.97
2022-12-12T00:27:09.252Z,14.03
2022-12-12T00:29:35.859Z,14.27
2022-12-12T00:32:02.405Z,13.80
2022-12-12T00:34:28.878Z,14.23
2022-12-12T00:36:55.420Z,14.67
2022-12-12T00:39:23.756Z,13.43
2022-12-12T00:41:50.331Z,14.10
2022-12-12T00:44:17.006Z,14.80
2022-12-12T00:46:43.567Z,14.53
2022-12-12T00:49:10.128Z,13.63
2022-12-12T00:51:36.663Z,14.17
2022-12-12T00:54:03.243Z,14.40
2022-12-12T00:56:29.783Z,15.27
2022-12-12T00:58:56.669Z,14.70
2022-12-12T01:01:24.874Z,14.63
2022-12-12T01:03:51.779Z,15.27
2022-12-12T01:06:18.334Z,14.17
2022-12-12T01:08:44.908Z,14.37
2022-12-12T01:11:11.988Z,14.47
2022-12-12T01:13:38.597Z,13.30
2022-12-12T01:16:06.178Z,14.13
2022-12-12T01:18:33.378Z,14.10
2022-12-12T01:20:59.923Z,15.30
2022-12-12T01:23:27.663Z,14.60
2022-12-12T01:26:05.645Z,14.93
2022-12-12T01:28:32.220Z,13.30
2022-12-12T01:30:58.753Z,14.00
2022-12-12T01:33:25.348Z,13.47
2022-12-12T01:35:52.010Z,13.83
2022-12-12T01:38:18.486Z,14.73
2022-12-12T01:40:45.077Z,14.77
2022-12-12T01:43:12.816Z,15.30
2022-12-12T01:46:12.534Z,15.47
2022-12-12T01:48:43.897Z,14.37
2022-12-12T01:51:11.806Z,13.97
2022-12-12T01:53:38.574Z,13.57
2022-12-12T01:56:07.204Z,13.93
2022-12-12T01:58:34.039Z,13.40
2022-12-12T02:01:01.682Z,13.73
2022-12-12T02:03:28.283Z,13.23
2022-12-12T02:06:00.238Z,13.73
2022-12-12T02:08:27.176Z,13.57
2022-12-12T02:10:53.819Z,12.90
2022-12-12T02:13:24.743Z,13.47
2022-12-12T02:15:58.263Z,12.63
2022-12-12T02:18:27.587Z,11.90
2022-12-12T02:20:59.541Z,12.87
2022-12-12T02:23:26.036Z,12.47
2022-12-12T02:26:11.059Z,12.33
2022-12-12T02:28:52.543Z,12.40
2022-12-12T02:31:54.506Z,12.70
2022-12-12T02:34:20.982Z,11.43
2022-12-12T02:37:02.697Z,12.53
2022-12-12T02:39:47.268Z,11.87
2022-12-12T02:42:23.167Z,11.57
2022-12-12T02:44:54.690Z,12.03
2022-12-12T02:47:24.411Z,12.10
2022-12-12T02:49:50.977Z,11.57
2022-12-12T02:52:17.768Z,12.10
2022-12-12T02:54:44.360Z,11.30
2022-12-12T02:57:21.066Z,12.37
2022-12-12T02:59:50.447Z,11.77
2022-12-12T03:02:22.910Z,11.50
2022-12-12T03:05:14.340Z,12.40
2022-12-12T03:07:58.823Z,11.20
2022-12-12T03:10:41.001Z,11.40
2022-12-12T03:13:19.852Z,11.13
2022-12-12T03:15:53.270Z,11.17
2022-12-12T03:18:22.800Z,11.63
2022-12-12T03:20:55.033Z,11.13
2022-12-12T03:23:24.437Z,11.23
2022-12-12T03:26:03.294Z,11.40
2022-12-12T03:28:33.819Z,11.70
2022-12-12T03:31:03.180Z,10.43
2022-12-12T03:33:50.535Z,11.90
2022-12-12T03:36:20.519Z,11.73
2022-12-12T03:38:57.111Z,11.10
2022-12-12T03:41:26.713Z,11.50
2022-12-12T03:44:00.551Z,11.17
2022-12-12T03:46:27.035Z,10.50
2022-12-12T03:48:59.508Z,11.13
2022-12-12T03:51:27.568Z,11.17
2022-12-12T03:54:29.501Z,10.33
2022-12-12T03:56:59.118Z,10.43
2022-12-12T03:59:44.115Z,10.20
2022-12-12T04:02:19.629Z,10.50
2022-12-12T04:05:12.391Z,9.83
2022-12-12T04:07:41.518Z,10.07
2022-12-12T04:10:27.480Z,9.33
2022-12-12T04:13:15.805Z,9.67
2022-12-12T04:15:48.603Z,10.37
2022-12-12T04:18:15.145Z,9.43
2022-12-12T04:21:03.434Z,9.47
2022-12-12T04:23:41.223Z,9.80
2022-12-12T04:26:30.891Z,8.87
2022-12-12T04:29:02.859Z,9.20
2022-12-12T04:31:31.455Z,10.00
2022-12-12T04:34:01.647Z,9.40
2022-12-12T04:36:29.168Z,9.80
2022-12-12T04:38:56.078Z,12.77
2022-12-12T04:41:22.915Z,11.53
2022-12-12T04:43:50.390Z,10.80
2022-12-12T04:46:19.818Z,11.00
2022-12-12T04:48:52.957Z,10.37
2022-12-12T04:51:33.871Z,10.40
2022-12-12T04:54:05.644Z,9.87
2022-12-12T04:56:34.602Z,10.07
2022-12-12T04:59:02.265Z,9.80
2022-12-12T05:01:33.483Z,10.53
2022-12-12T05:04:05.525Z,11.37
2022-12-12T05:06:34.313Z,11.03
2022-12-12T05:09:01.790Z,11.40
2022-12-12T05:11:28.630Z,11.43
2022-12-12T05:13:55.225Z,11.90
2022-12-12T05:16:25.100Z,11.33
2022-12-12T05:18:51.794Z,10.40
2022-12-12T05:21:18.305Z,11.53
2022-12-12T05:23:45.041Z,10.37
2022-12-12T05:26:17.686Z,10.30
2022-12-12T05:28:44.324Z,11.33
2022-12-12T05:31:10.891Z,11.73
2022-12-12T05:33:37.451Z,11.43
2022-12-12T05:36:04.041Z,10.93
2022-12-12T05:38:30.542Z,10.60
2022-12-12T05:40:57.122Z,10.20
2022-12-12T05:43:24.858Z,10.73
2022-12-12T05:45:51.863Z,12.53
2022-12-12T05:48:23.998Z,11.30
2022-12-12T05:50:51.185Z,11.47
2022-12-12T05:53:17.932Z,10.93
2022-12-12T05:55:44.451Z,12.50
2022-12-12T05:58:11.138Z,12.17
2022-12-12T06:00:37.696Z,12.00
2022-12-12T06:03:04.279Z,12.47
2022-12-12T06:05:31.235Z,12.73
2022-12-12T06:07:57.757Z,12.10
2022-12-12T06:10:24.279Z,11.27
2022-12-12T06:12:50.764Z,11.33
2022-12-12T06:15:17.348Z,11.97
2022-12-12T06:17:43.850Z,12.30
2022-12-12T06:20:10.696Z,12.53
2022-12-12T06:22:37.277Z,11.43
2022-12-12T06:25:03.885Z,11.70
2022-12-12T06:27:30.386Z,11.30
2022-12-12T06:29:56.929Z,12.23
2022-12-12T06:32:23.427Z,12.77
2022-12-12T06:34:50.123Z,12.67
2022-12-12T06:37:17.478Z,12.47
2022-12-12T06:39:44.429Z,12.60
2022-12-12T06:42:10.967Z,12.40
2022-12-12T06:44:37.438Z,11.87
2022-12-12T06:47:03.982Z,11.47
2022-12-12T06:49:30.467Z,11.27
2022-12-12T06:51:56.957Z,11.20
2022-12-12T06:54:23.718Z,11.73
2022-12-12T06:56:50.257Z,11.53
2022-12-12T06:59:17.102Z,11.63
2022-12-12T07:01:43.789Z,11.40
2022-12-12T07:04:11.441Z,11.77
2022-12-12T07:06:38.004Z,10.90
2022-12-12T07:09:04.954Z,12.20
2022-12-12T07:11:31.544Z,12.10
2022-12-12T07:13:58.220Z,12.23
2022-12-12T07:16:24.806Z,12.53
2022-12-12T07:18:51.384Z,11.67
2022-12-12T07:21:19.152Z,12.33
2022-12-12T07:23:46.098Z,11.60
2022-12-12T07:26:13.603Z,11.67
2022-12-12T07:28:40.166Z,11.80
2022-12-12T07:31:07.823Z,12.07
2022-12-12T07:33:43.169Z,11.13
2022-12-12T07:36:10.506Z,10.50
2022-12-12T07:38:37.405Z,11.07
2022-12-12T07:41:08.002Z,10.87
2022-12-12T07:43:38.576Z,10.87
2022-12-12T07:46:10.265Z,9.83
2022-12-12T07:48:37.193Z,10.40
2022-12-12T07:51:03.815Z,11.23
2022-12-12T07:53:30.448Z,9.90
2022-12-12T07:55:56.943Z,10.30
2022-12-12T07:58:23.587Z,9.97
2022-12-12T08:00:50.155Z,10.07
2022-12-12T08:03:16.649Z,9.23
2022-12-12T08:05:43.503Z,9.50
2022-12-12T08:08:10.060Z,10.27
2022-12-12T08:10:38.658Z,9.70
2022-12-12T08:13:05.166Z,10.17
2022-12-12T08:15:33.104Z,8.97
2022-12-12T08:17:59.689Z,9.07
2022-12-12T08:20:26.292Z,8.80
2022-12-12T08:22:52.913Z,8.97
2022-12-12T08:25:19.436Z,8.20
2022-12-12T08:27:45.953Z,9.70
2022-12-12T08:30:12.709Z,8.77
2022-12-12T08:32:39.241Z,8.33
2022-12-12T08:35:06.092Z,8.77
2022-12-12T08:37:32.626Z,9.20
2022-12-12T08:39:59.159Z,8.57
2022-12-12T08:42:25.732Z,8.70
2022-12-12T08:44:52.285Z,8.23
2022-12-12T08:47:18.873Z,8.77
2022-12-12T08:49:45.374Z,8.60
2022-12-12T08:52:11.962Z,8.43
2022-12-12T08:54:38.534Z,8.60
2022-12-12T08:57:05.113Z,8.37
2022-12-12T08:59:31.646Z,8.97
2022-12-12T09:01:58.295Z,8.67
2022-12-12T09:04:24.868Z,9.33
2022-12-12T09:06:51.702Z,9.07
2022-12-12T09:09:18.157Z,9.03
2022-12-12T09:11:44.702Z,8.87
2022-12-12T09:14:11.604Z,11.40
2022-12-12T09:16:38.137Z,13.40
2022-12-12T09:19:04.674Z,18.20
2022-12-12T09:21:31.308Z,10.23
2022-12-12T09:23:58.163Z,10.70
2022-12-12T09:26:24.631Z,10.13
2022-12-12T09:28:51.161Z,10.23
2022-12-12T09:31:18.541Z,9.97
2022-12-12T09:33:45.182Z,9.90
2022-12-12T09:36:15.022Z,10.00
2022-12-12T09:38:41.933Z,10.27
2022-12-12T09:41:14.416Z,9.70
2022-12-12T09:43:47.424Z,11.27
2022-12-12T09:46:34.371Z,11.20
2022-12-12T09:49:13.025Z,10.90
2022-12-12T09:51:40.493Z,10.50
2022-12-12T09:54:07.088Z,10.73
2022-12-12T09:56:39.720Z,10.57
2022-12-12T09:59:06.261Z,10.23
2022-12-12T10:01:37.077Z,11.30
2022-12-12T10:04:11.649Z,10.73
2022-12-12T10:06:45.463Z,11.20
2022-12-12T10:09:30.727Z,9.97
2022-12-12T10:12:00.974Z,10.73
2022-12-12T10:14:34.699Z,9.97
2022-12-12T10:17:03.193Z,10.93
2022-12-12T10:19:31.355Z,10.07
2022-12-12T10:22:15.259Z,12.10
2022-12-12T10:24:47.204Z,11.77
2022-12-12T10:27:14.398Z,11.23
2022-12-12T10:29:43.690Z,11.87
2022-12-12T10:32:22.492Z,11.07
2022-12-12T10:34:58.574Z,11.57
2022-12-12T10:37:31.421Z,10.83
2022-12-12T10:40:01.932Z,10.83
2022-12-12T10:42:31.197Z,10.90
2022-12-12T10:45:17.978Z,11.00
2022-12-12T10:47:45.289Z,12.07
2022-12-12T10:50:13.584Z,11.80
2022-12-12T10:52:40.574Z,11.73
2022-12-12T10:55:25.424Z,11.70
2022-12-12T10:58:02.191Z,10.63
2022-12-12T11:00:31.748Z,11.20
2022-12-12T11:03:00.372Z,11.27
2022-12-12T11:05:29.515Z,11.67
2022-12-12T11:08:31.680Z,11.27
2022-12-12T11:11:21.519Z,11.67
2022-12-12T11:13:52.573Z,10.60
2022-12-12T11:16:21.614Z,10.90
2022-12-12T11:19:07.003Z,11.40
2022-12-12T11:21:35.857Z,11.67
2022-12-12T11:24:12.866Z,11.87
2022-12-12T11:26:42.341Z,10.33
2022-12-12T11:29:13.031Z,11.00
2022-12-12T11:31:43.409Z,10.00
2022-12-12T11:34:13.769Z,10.27
2022-12-12T11:36:41.597Z,10.83
2022-12-12T11:39:16.266Z,10.43
2022-12-12T11:42:01.025Z,11.67
2022-12-12T11:44:31.675Z,13.50
2022-12-12T11:47:15.124Z,16.37
2022-12-12T11:49:55.384Z,12.83
2022-12-12T11:52:23.630Z,9.10
2022-12-12T11:54:50.389Z,9.83
2022-12-12T11:57:19.604Z,9.23
2022-12-12T11:59:57.810Z,9.40
2022-12-12T12:02:24.704Z,9.90
2022-12-12T12:04:59.440Z,9.23
2022-12-12T12:07:52.517Z,9.17
2022-12-12T12:10:27.055Z,8.60
2022-12-12T12:13:12.089Z,8.63
2022-12-12T12:15:46.157Z,9.33
2022-12-12T12:18:31.512Z,9.13
2022-12-12T12:20:58.101Z,8.30
2022-12-12T12:23:50.092Z,8.10
2022-12-12T12:26:35.600Z,8.43
2022-12-12T12:29:14.183Z,8.07
2022-12-12T12:31:51.475Z,7.90
2022-12-12T12:34:23.833Z,7.87
2022-12-12T12:37:09.272Z,7.73
2022-12-12T12:39:54.291Z,9.50
2022-12-12T12:42:23.591Z,7.70
2022-12-12T12:45:07.464Z,7.57
2022-12-12T12:47:39.952Z,7.27
2022-12-12T12:50:15.934Z,7.87
2022-12-12T12:52:45.849Z,6.93
2022-12-12T12:55:19.045Z,7.37
2022-12-12T12:57:47.253Z,7.43
2022-12-12T13:00:16.218Z,7.53
2022-12-12T13:03:01.601Z,7.30
2022-12-12T13:05:28.178Z,7.80
2022-12-12T13:07:57.653Z,7.40
2022-12-12T13:10:28.848Z,7.43
2022-12-12T13:13:06.022Z,7.20
2022-12-12T13:15:39.296Z,7.43
2022-12-12T13:18:10.436Z,7.23
2022-12-12T13:20:45.065Z,7.20
2022-12-12T13:23:14.591Z,7.13
2022-12-12T13:25:53.756Z,7.17
2022-12-12T13:28:22.944Z,6.97
2022-12-12T13:30:58.435Z,6.80
2022-12-12T13:33:57.226Z,7.20
2022-12-12T13:36:30.306Z,6.80
2022-12-12T13:38:58.342Z,6.63
2022-12-12T13:41:25.006Z,6.90
2022-12-12T13:43:58.712Z,7.10
2022-12-12T13:46:26.448Z,6.70
2022-12-12T13:49:11.902Z,7.37
2022-12-12T13:51:38.751Z,6.60
2022-12-12T13:54:14.252Z,6.50
2022-12-12T13:56:45.621Z,6.83
2022-12-12T13:59:27.467Z,6.47
2022-12-12T14:01:58.034Z,6.40
2022-12-12T14:04:24.584Z,6.40
2022-12-12T14:07:09.713Z,6.03
2022-12-12T14:09:48.432Z,6.37
2022-12-12T14:12:35.309Z,5.67
2022-12-12T14:15:03.802Z,5.93
2022-12-12T14:17:36.872Z,5.97
2022-12-12T14:20:08.628Z,6.33
2022-12-12T14:22:38.128Z,5.77
2022-12-12T14:25:08.153Z,6.07
2022-12-12T14:27:54.891Z,8.23
2022-12-12T14:30:21.371Z,5.97
2022-12-12T14:32:54.105Z,5.83
2022-12-12T14:35:20.625Z,6.03
2022-12-12T14:37:51.361Z,5.37
2022-12-12T14:40:21.464Z,5.80
2022-12-12T14:43:21.066Z,7.70
2022-12-12T14:45:41.896Z,5.90
2022-12-12T14:48:16.821Z,5.60
2022-12-12T14:50:44.922Z,5.37
2022-12-12T14:53:34.909Z,5.53
2022-12-12T14:56:03.497Z,5.20
2022-12-12T14:58:32.224Z,4.73
2022-12-12T15:01:00.126Z,4.73
2022-12-12T15:03:31.690Z,4.90
2022-12-12T15:06:17.122Z,4.23
2022-12-12T15:08:43.647Z,4.60
2022-12-12T15:11:14.198Z,4.80
2022-12-12T15:13:50.902Z,4.90
2022-12-12T15:16:18.252Z,4.33
2022-12-12T15:18:45.054Z,5.37
2022-12-12T15:21:12.320Z,5.20
2022-12-12T15:23:40.484Z,5.83
2022-12-12T15:26:07.056Z,6.07
2022-12-12T15:28:33.602Z,5.60
2022-12-12T15:31:01.080Z,5.43
2022-12-12T15:33:27.902Z,5.83
2022-12-12T15:36:02.159Z,5.90
2022-12-12T15:38:30.002Z,5.70
2022-12-12T15:41:00.837Z,6.20
2022-12-12T15:43:28.547Z,5.70
2022-12-12T15:46:14.522Z,6.33
2022-12-12T15:48:42.093Z,6.47
2022-12-12T15:51:10.115Z,6.53
2022-12-12T15:53:39.053Z,6.93
2022-12-12T15:56:13.700Z,6.30
2022-12-12T15:58:44.664Z,6.97
2022-12-12T16:01:21.071Z,7.30
2022-12-12T16:03:54.714Z,7.90
2022-12-12T16:06:23.608Z,6.90
2022-12-12T16:08:54.566Z,7.87
2022-12-12T16:11:33.068Z,7.00
2022-12-12T16:13:59.846Z,6.30
2022-12-12T16:16:47.247Z,6.93
2022-12-12T16:19:22.957Z,5.80
2022-12-12T16:21:49.523Z,5.20
2022-12-12T16:24:26.183Z,5.07
2022-12-12T16:26:56.850Z,5.10
2022-12-12T16:29:23.458Z,4.77
2022-12-12T16:31:50.103Z,5.17
2022-12-12T16:34:16.960Z,5.07
2022-12-12T16:36:43.511Z,5.03
2022-12-12T16:39:10.988Z,4.90
2022-12-12T16:41:37.527Z,5.33
2022-12-12T16:44:04.094Z,4.37
2022-12-12T16:46:30.620Z,4.80
2022-12-12T16:49:04.232Z,9.00
2022-12-12T16:51:33.121Z,5.60
2022-12-12T16:54:00.119Z,4.70
2022-12-12T16:56:26.947Z,4.63
2022-12-12T16:58:53.444Z,5.13
2022-12-12T17:01:20.832Z,6.60
2022-12-12T17:03:47.434Z,5.30
2022-12-12T17:06:13.962Z,4.80
2022-12-12T17:08:40.461Z,4.80
2022-12-12T17:11:10.109Z,5.10
2022-12-12T17:13:38.181Z,4.73
2022-12-12T17:16:04.842Z,4.97
2022-12-12T17:18:31.504Z,4.83
2022-12-12T17:20:58.039Z,5.03
2022-12-12T17:23:27.387Z,4.80
2022-12-12T17:26:00.660Z,4.83
2022-12-12T17:28:29.485Z,4.97
2022-12-12T17:30:55.973Z,5.00
2022-12-12T17:33:22.485Z,4.77
2022-12-12T17:35:57.074Z,4.77
2022-12-12T17:38:23.628Z,4.80
2022-12-12T17:40:53.854Z,4.73
2022-12-12T17:43:20.435Z,4.70
2022-12-12T17:45:56.396Z,5.10
2022-12-12T17:48:23.642Z,5.17
2022-12-12T17:50:57.543Z,5.13
2022-12-12T17:53:24.878Z,5.73
2022-12-12T17:56:00.980Z,5.53
2022-12-12T17:58:31.455Z,5.10
2022-12-12T18:00:58.445Z,5.30
2022-12-12T18:03:25.008Z,5.27
2022-12-12T18:05:51.540Z,5.73
2022-12-12T18:08:18.374Z,5.67
2022-12-12T18:10:44.883Z,6.53
2022-12-12T18:13:11.395Z,7.83
2022-12-12T18:15:37.874Z,26.30
2022-12-12T18:18:04.427Z,25.13
2022-12-12T18:20:31.505Z,6.00
2022-12-12T18:22:58.200Z,5.50
2022-12-12T18:25:25.236Z,5.90
2022-12-12T18:27:51.796Z,5.97
2022-12-12T18:30:18.321Z,6.43
2022-12-12T18:32:46.248Z,6.00
2022-12-12T18:35:12.854Z,6.00
2022-12-12T18:37:39.348Z,6.40
2022-12-12T18:40:07.151Z,6.33
2022-12-12T18:42:33.641Z,6.17
2022-12-12T18:45:00.180Z,5.90
2022-12-12T18:47:26.776Z,7.00
2022-12-12T18:49:53.280Z,6.33
2022-12-12T18:52:19.968Z,6.90
2022-12-12T18:54:46.456Z,6.60
2022-12-12T18:57:13.048Z,6.70
2022-12-12T18:59:39.648Z,6.83
2022-12-12T19:02:06.274Z,6.20
2022-12-12T19:04:32.867Z,6.87
2022-12-12T19:06:59.565Z,6.37
2022-12-12T19:09:26.037Z,5.60
2022-12-12T19:12:00.051Z,6.50
2022-12-12T19:14:40.473Z,6.03
2022-12-12T19:17:15.713Z,6.33
2022-12-12T19:19:43.341Z,6.83
2022-12-12T19:22:39.904Z,6.23
2022-12-12T19:24:56.348Z,6.47
2022-12-12T19:27:22.890Z,6.20
2022-12-12T19:29:49.435Z,6.40
2022-12-12T19:32:16.411Z,6.43
2022-12-12T19:34:43.015Z,6.63
2022-12-12T19:37:09.577Z,6.67
2022-12-12T19:39:36.142Z,7.10
2022-12-12T19:42:02.777Z,7.47
2022-12-12T19:44:29.313Z,6.55
2022-12-12T19:46:55.861Z,7.17
2022-12-12T19:49:23.045Z,6.63
2022-12-12T19:51:49.690Z,7.00
2022-12-12T19:54:17.766Z,7.13
2022-12-12T19:56:44.709Z,6.77
2022-12-12T19:59:12.359Z,7.33
2022-12-12T20:01:39.468Z,6.87
2022-12-12T20:04:07.672Z,6.83
2022-12-12T20:06:40.992Z,5.97
2022-12-12T20:09:08.968Z,6.83
2022-12-12T20:11:36.174Z,6.47
2022-12-12T20:14:03.327Z,7.07
2022-12-12T20:16:30.077Z,7.23
2022-12-12T20:18:57.152Z,6.73
2022-12-12T20:21:59.029Z,6.83
2022-12-12T20:24:12.674Z,6.70
2022-12-12T20:26:40.108Z,6.30
2022-12-12T20:29:07.488Z,5.77
2022-12-12T20:31:34.944Z,7.43
2022-12-12T20:34:01.950Z,6.67
2022-12-12T20:36:30.435Z,6.33
2022-12-12T20:38:58.377Z,6.20
2022-12-12T20:41:26.398Z,6.03
2022-12-12T20:43:53.771Z,6.27
2022-12-12T20:46:24.724Z,7.33
2022-12-12T20:48:51.317Z,7.33
2022-12-12T20:51:45.982Z,7.47
2022-12-12T20:54:06.198Z,7.07
2022-12-12T20:56:33.091Z,6.30
2022-12-12T20:59:01.425Z,6.77
2022-12-12T21:01:29.316Z,9.83
2022-12-12T21:03:57.668Z,7.03
2022-12-12T21:06:25.519Z,7.33
2022-12-12T21:08:53.067Z,7.67
2022-12-12T21:11:21.563Z,7.87
2022-12-12T21:13:50.587Z,7.40
2022-12-12T21:16:22.406Z,7.17
2022-12-12T21:18:49.955Z,7.73
2022-12-12T21:21:16.482Z,7.37
2022-12-12T21:23:42.980Z,8.20
2022-12-12T21:26:18.478Z,8.80
2022-12-12T21:28:46.715Z,8.77
2022-12-12T21:31:20.637Z,8.13
2022-12-12T21:33:47.500Z,8.10
2022-12-12T21:36:15.383Z,8.73
2022-12-12T21:38:41.906Z,9.60
2022-12-12T21:41:10.246Z,9.70
2022-12-12T21:43:37.071Z,9.03
2022-12-12T21:46:04.640Z,9.83
2022-12-12T21:48:31.183Z,9.37
2022-12-12T21:51:01.534Z,10.23
2022-12-12T21:53:33.806Z,9.67
2022-12-12T21:56:13.975Z,10.77
2022-12-12T21:58:41.352Z,10.73
2022-12-12T22:01:08.644Z,11.07
2022-12-12T22:03:35.650Z,10.60
2022-12-12T22:06:09.040Z,11.63
2022-12-12T22:08:35.536Z,11.40
2022-12-12T22:11:02.052Z,11.17
2022-12-12T22:13:28.510Z,11.20
2022-12-12T22:16:02.684Z,12.07
2022-12-12T22:18:29.270Z,12.07
2022-12-12T22:21:02.276Z,11.53
2022-12-12T22:23:28.766Z,11.67
2022-12-12T22:25:55.485Z,10.90
2022-12-12T22:28:21.995Z,11.47
2022-12-12T22:30:48.645Z,12.20
2022-12-12T22:33:15.187Z,12.00
2022-12-12T22:35:41.758Z,12.00
2022-12-12T22:38:08.232Z,12.70
2022-12-12T22:40:34.773Z,12.40
2022-12-12T22:43:01.437Z,11.90
2022-12-12T22:45:28.027Z,11.37
2022-12-12T22:47:54.569Z,12.27
2022-12-12T22:50:21.183Z,11.70
2022-12-12T22:52:47.696Z,11.63
2022-12-12T22:55:14.287Z,12.43
2022-12-12T22:57:41.042Z,11.17
2022-12-12T23:00:10.436Z,11.27
2022-12-12T23:02:37.280Z,11.70
2022-12-12T23:05:03.870Z,11.37
2022-12-12T23:07:30.578Z,10.50
2022-12-12T23:09:58.966Z,11.73
2022-12-12T23:12:25.504Z,10.93
2022-12-12T23:14:52.352Z,11.40
2022-12-12T23:17:19.155Z,11.33
2022-12-12T23:19:45.949Z,11.73
2022-12-12T23:22:12.505Z,11.97
2022-12-12T23:24:39.015Z,10.33
2022-12-12T23:27:05.583Z,11.60
2022-12-12T23:29:32.083Z,11.00
2022-12-12T23:32:02.849Z,13.07
2022-12-12T23:34:29.975Z,10.87
2022-12-12T23:36:57.055Z,10.10
2022-12-12T23:39:25.315Z,10.50
2022-12-12T23:41:52.675Z,10.00
2022-12-12T23:44:19.907Z,9.13
2022-12-12T23:46:47.171Z,9.40
2022-12-12T23:49:13.896Z,9.70
2022-12-12T23:51:42.221Z,8.00
2022-12-12T23:54:16.158Z,8.07
2022-12-12T23:56:43.442Z,8.50
2022-12-12T23:59:16.876Z,8.03
